Time;durP1;ratioP1;P1;durP2;ratioP2;P2;SDS_P1;SDS_P2;PMS_P1;PMS_P2;Temp;Humidity;BMP_temperature;BMP_pressure;BME280_temperature;BME280_humidity;BME280_pressure;Samples;Min_cycle;Max_cycle;Signal;HPM_P1;HPM_P2
2021/08/01 00:00:52;;;;;;;4.40;3.93;;;;;24.00;99862.00;;;;2058916;28;20581;-66
2021/08/01 00:01:52;;;;;;;4.40;3.97;;;;;23.90;99863.00;;;;2059437;28;20203;-66
2021/08/01 00:02:55;;;;;;;4.70;4.30;;;;;24.00;99857.00;;;;2060119;28;20742;-66
2021/08/01 00:03:55;;;;;;;4.72;3.97;;;;;24.00;99861.00;;;;2059935;28;20211;-66
2021/08/01 00:04:57;;;;;;;4.30;4.00;;;;;24.00;99860.00;;;;2060077;28;20219;-65
2021/08/01 00:05:57;;;;;;;4.40;3.95;;;;;24.00;99856.00;;;;2060251;28;20223;-65
2021/08/01 00:06:58;;;;;;;3.93;3.63;;;;;24.00;99859.00;;;;2062698;28;20214;-65
2021/08/01 00:07:58;;;;;;;4.50;4.10;;;;;24.00;99864.00;;;;2062050;28;20242;-63
2021/08/01 00:08:58;;;;;;;4.23;3.83;;;;;24.00;99856.00;;;;2059582;28;20243;-66
2021/08/01 00:09:59;;;;;;;4.43;3.33;;;;;24.00;99851.00;;;;2062836;28;20211;-66
2021/08/01 00:10:59;;;;;;;4.10;3.70;;;;;24.00;99853.00;;;;2058928;28;20273;-65
2021/08/01 00:12:00;;;;;;;4.03;3.63;;;;;24.00;99859.00;;;;2059224;28;20221;-66
2021/08/01 00:13:01;;;;;;;3.57;3.27;;;;;24.00;99854.00;;;;2059106;28;20217;-65
2021/08/01 00:14:01;;;;;;;4.75;3.83;;;;;24.00;99851.00;;;;2058971;28;20582;-66
2021/08/01 00:15:02;;;;;;;3.93;3.53;;;;;24.00;99856.00;;;;2059428;28;20215;-67
2021/08/01 00:16:03;;;;;;;4.03;3.63;;;;;24.00;99856.00;;;;2059206;28;20309;-66
2021/08/01 00:17:03;;;;;;;3.80;3.50;;;;;24.00;99849.00;;;;2059345;28;21047;-66
2021/08/01 00:18:04;;;;;;;3.60;3.30;;;;;24.00;99852.00;;;;2059423;28;20575;-66
2021/08/01 00:19:04;;;;;;;3.83;3.43;;;;;24.00;99849.00;;;;2050938;28;20794;-66
2021/08/01 00:20:05;;;;;;;3.73;3.43;;;;;24.00;99849.00;;;;2051467;28;20707;-66
2021/08/01 00:21:06;;;;;;;3.83;3.30;;;;;23.90;99840.00;;;;2048845;28;20615;-66
2021/08/01 00:22:06;;;;;;;3.50;3.20;;;;;24.00;99854.00;;;;2042976;29;20221;-66
2021/08/01 00:23:06;;;;;;;3.80;3.50;;;;;24.00;99840.00;;;;2054402;28;20758;-66
2021/08/01 00:24:07;;;;;;;3.33;3.03;;;;;23.90;99845.00;;;;2059151;28;20246;-66
2021/08/01 00:25:08;;;;;;;3.97;3.60;;;;;23.90;99844.00;;;;2059242;28;20231;-66
2021/08/01 00:26:08;;;;;;;4.70;3.57;;;;;23.90;99845.00;;;;2059144;28;20367;-66
2021/08/01 00:27:08;;;;;;;3.77;3.47;;;;;24.00;99841.00;;;;2062856;28;20454;-66
2021/08/01 00:28:09;;;;;;;3.53;3.23;;;;;24.00;99856.00;;;;2060281;28;20234;-66
2021/08/01 00:29:09;;;;;;;3.80;3.50;;;;;24.00;99834.00;;;;2060073;28;20330;-66
2021/08/01 00:30:10;;;;;;;3.40;3.20;;;;;23.90;99832.00;;;;2060295;28;20239;-66
2021/08/01 00:31:10;;;;;;;3.83;3.27;;;;;24.00;99841.00;;;;2056989;28;20270;-66
2021/08/01 00:32:11;;;;;;;3.20;2.90;;;;;24.00;99835.00;;;;2060116;28;20608;-66
2021/08/01 00:33:11;;;;;;;3.27;2.97;;;;;23.90;99836.00;;;;2060265;28;20888;-66
2021/08/01 00:34:11;;;;;;;2.87;2.67;;;;;24.00;99838.00;;;;2060055;28;20302;-66
2021/08/01 00:35:12;;;;;;;3.70;3.40;;;;;23.90;99840.00;;;;2060222;28;20215;-66
2021/08/01 00:36:12;;;;;;;3.43;3.13;;;;;24.00;99844.00;;;;2063831;28;20289;-66
2021/08/01 00:37:12;;;;;;;3.50;3.20;;;;;23.90;99836.00;;;;2060897;28;20239;-66
2021/08/01 00:38:13;;;;;;;3.30;3.00;;;;;23.90;99831.00;;;;2060166;28;20237;-66
2021/08/01 00:39:13;;;;;;;3.13;2.93;;;;;23.90;99828.00;;;;2060307;28;20222;-65
2021/08/01 00:40:13;;;;;;;3.20;3.00;;;;;23.90;99827.00;;;;2059905;28;20221;-66
2021/08/01 00:41:14;;;;;;;5.23;3.20;;;;;24.00;99830.00;;;;2059308;28;20219;-66
2021/08/01 00:42:14;;;;;;;3.43;3.13;;;;;23.90;99829.00;;;;2055845;28;20274;-66
2021/08/01 00:43:14;;;;;;;3.50;3.20;;;;;24.00;99826.00;;;;2059448;28;20234;-65
2021/08/01 00:44:15;;;;;;;3.70;3.40;;;;;24.00;99826.00;;;;2062700;28;20214;-67
2021/08/01 00:45:15;;;;;;;3.20;2.90;;;;;23.90;99821.00;;;;2057716;28;20665;-67
2021/08/01 00:46:16;;;;;;;3.20;3.00;;;;;23.90;99833.00;;;;2062021;28;20645;-66
2021/08/01 00:47:16;;;;;;;3.83;3.13;;;;;23.90;99826.00;;;;2053408;28;20243;-66
2021/08/01 00:48:17;;;;;;;4.00;3.20;;;;;23.90;99819.00;;;;2053141;28;20505;-66
2021/08/01 00:49:17;;;;;;;3.00;2.80;;;;;23.90;99825.00;;;;2061141;28;20219;-65
2021/08/01 00:50:17;;;;;;;3.30;3.10;;;;;23.90;99820.00;;;;2060445;28;20346;-65
2021/08/01 00:51:18;;;;;;;3.70;3.40;;;;;23.90;99817.00;;;;2061036;28;20214;-65
2021/08/01 00:52:18;;;;;;;3.67;3.37;;;;;23.90;99819.00;;;;2052348;28;20227;-65
2021/08/01 00:53:18;;;;;;;4.13;3.60;;;;;23.90;99810.00;;;;2052278;28;20235;-66
2021/08/01 00:54:19;;;;;;;2.90;2.70;;;;;24.00;99817.00;;;;2061930;28;20254;-65
2021/08/01 00:55:19;;;;;;;3.17;2.93;;;;;23.70;99809.00;;;;2061648;28;20633;-65
2021/08/01 00:56:19;;;;;;;3.50;3.20;;;;;24.00;99811.00;;;;2059338;28;20234;-66
2021/08/01 00:57:20;;;;;;;3.93;3.10;;;;;24.00;99806.00;;;;2060915;28;20246;-66
2021/08/01 00:58:20;;;;;;;3.50;3.20;;;;;24.00;99808.00;;;;2052877;28;20216;-65
2021/08/01 00:59:20;;;;;;;3.47;2.70;;;;;23.90;99810.00;;;;2053010;28;20307;-65
2021/08/01 01:01:38;;;;;;;3.35;3.03;;;;;23.90;99818.00;;;;2061394;28;20212;-65
2021/08/01 01:02:38;;;;;;;3.53;3.22;;;;;23.90;99811.00;;;;2045166;29;20226;-65
2021/08/01 01:04:11;;;;;;;3.37;3.07;;;;;23.90;99818.00;;;;2037649;29;20212;-66
2021/08/01 01:05:20;;;;;;;4.35;3.05;;;;;23.90;99820.00;;;;2040525;28;20256;-64
2021/08/01 01:06:42;;;;;;;4.90;3.88;;;;;23.90;99818.00;;;;2047920;28;20235;-65
2021/08/01 01:07:55;;;;;;;3.20;2.90;;;;;23.90;99819.00;;;;2061191;28;20211;-65
2021/08/01 01:09:06;;;;;;;2.90;2.70;;;;;23.80;99818.00;;;;2051901;28;20575;-66
2021/08/01 01:10:40;;;;;;;3.40;3.10;;;;;23.80;99818.00;;;;2053760;28;20274;-65
2021/08/01 01:11:41;;;;;;;3.22;2.80;;;;;23.80;99817.00;;;;2016644;29;20215;-66
2021/08/01 01:12:47;;;;;;;2.95;2.75;;;;;23.80;99813.00;;;;2037542;28;20345;-65
2021/08/01 01:13:50;;;;;;;2.85;2.63;;;;;23.80;99826.00;;;;2049152;28;20250;-66
2021/08/01 01:14:52;;;;;;;4.22;3.10;;;;;23.80;99821.00;;;;2057155;28;20294;-65
2021/08/01 01:15:53;;;;;;;3.47;3.00;;;;;23.80;99822.00;;;;2061595;28;20694;-65
2021/08/01 01:16:56;;;;;;;3.00;2.63;;;;;23.80;99817.00;;;;2052028;28;20223;-65
2021/08/01 01:17:56;;;;;;;2.90;2.70;;;;;23.80;99810.00;;;;2044423;29;20719;-65
2021/08/01 01:18:58;;;;;;;3.00;2.80;;;;;23.80;99832.00;;;;2043865;29;20610;-65
2021/08/01 01:20:16;;;;;;;3.72;3.42;;;;;23.80;99819.00;;;;2032423;29;20222;-65
2021/08/01 01:21:32;;;;;;;3.10;2.80;;;;;23.80;99822.00;;;;2049942;28;20224;-66
2021/08/01 01:23:02;;;;;;;2.90;2.70;;;;;23.80;99818.00;;;;2061166;28;20678;-66
2021/08/01 01:24:04;;;;;;;2.88;2.67;;;;;23.80;99811.00;;;;2060588;28;20219;-65
2021/08/01 01:25:10;;;;;;;2.60;2.40;;;;;23.80;99808.00;;;;2051908;28;20227;-66
2021/08/01 01:26:23;;;;;;;3.50;2.80;;;;;23.80;99798.00;;;;2037073;29;20719;-65
2021/08/01 01:27:29;;;;;;;3.10;2.90;;;;;23.80;99806.00;;;;2042777;29;20212;-65
2021/08/01 01:28:30;;;;;;;3.13;2.88;;;;;23.80;99806.00;;;;2053652;28;20247;-66
2021/08/01 01:29:49;;;;;;;3.27;2.97;;;;;23.80;99799.00;;;;2063593;28;20334;-65
2021/08/01 01:31:03;;;;;;;3.08;2.80;;;;;23.80;99796.00;;;;2060729;28;20692;-65
2021/08/01 01:32:10;;;;;;;2.75;2.55;;;;;23.80;99799.00;;;;2041404;29;20211;-65
2021/08/01 01:33:11;;;;;;;2.85;2.33;;;;;23.80;99805.00;;;;2048876;28;20272;-65
2021/08/01 01:34:22;;;;;;;2.77;2.50;;;;;23.80;99803.00;;;;2051592;28;20223;-65
2021/08/01 01:35:23;;;;;;;2.60;2.40;;;;;23.80;99802.00;;;;2051540;28;20216;-65
2021/08/01 01:36:27;;;;;;;3.13;2.70;;;;;23.80;99795.00;;;;2054935;28;20234;-65
2021/08/01 01:37:27;;;;;;;3.80;2.60;;;;;23.80;99791.00;;;;2045511;28;20264;-66
2021/08/01 01:38:27;;;;;;;3.33;3.03;;;;;23.80;99793.00;;;;2036040;29;20225;-65
2021/08/01 01:39:29;;;;;;;3.20;2.90;;;;;23.80;99799.00;;;;2044642;29;20957;-66
2021/08/01 01:40:30;;;;;;;2.70;2.50;;;;;23.80;99803.00;;;;2044328;28;20235;-67
2021/08/01 01:41:30;;;;;;;2.90;2.70;;;;;23.80;99802.00;;;;2044670;29;20225;-66
2021/08/01 01:42:30;;;;;;;2.47;2.30;;;;;23.80;99802.00;;;;2044581;29;20259;-67
2021/08/01 01:43:31;;;;;;;3.10;2.80;;;;;23.80;99788.00;;;;2052722;28;20335;-65
2021/08/01 01:44:33;;;;;;;2.73;2.53;;;;;23.80;99800.00;;;;2052035;28;21589;-65
2021/08/01 01:45:36;;;;;;;2.90;2.70;;;;;23.80;99801.00;;;;2045011;28;20311;-65
2021/08/01 01:46:36;;;;;;;3.47;2.60;;;;;23.80;99791.00;;;;2044248;29;20628;-65
2021/08/01 01:47:37;;;;;;;2.90;2.60;;;;;23.80;99799.00;;;;2043969;29;20216;-66
2021/08/01 01:48:37;;;;;;;2.97;2.77;;;;;23.80;99803.00;;;;2043125;29;20277;-65
2021/08/01 01:49:37;;;;;;;3.27;2.97;;;;;23.80;99800.00;;;;2043651;29;20228;-65
2021/08/01 01:50:38;;;;;;;2.87;2.67;;;;;23.80;99795.00;;;;2043477;29;20272;-65
2021/08/01 01:51:38;;;;;;;3.00;2.70;;;;;23.80;99795.00;;;;2048083;28;20250;-66
2021/08/01 01:52:39;;;;;;;2.60;2.40;;;;;23.80;99796.00;;;;2048364;29;20232;-65
2021/08/01 01:53:39;;;;;;;2.87;2.67;;;;;23.80;99800.00;;;;2044678;29;20219;-65
2021/08/01 01:54:39;;;;;;;3.00;2.70;;;;;23.80;99807.00;;;;2036751;29;20612;-65
2021/08/01 01:55:40;;;;;;;2.60;2.40;;;;;23.80;99798.00;;;;2043840;29;20303;-65
2021/08/01 01:56:41;;;;;;;2.95;2.75;;;;;23.80;99810.00;;;;2043905;28;20239;-65
2021/08/01 01:57:41;;;;;;;3.20;2.90;;;;;23.80;99803.00;;;;2043086;28;20212;-65
2021/08/01 01:58:42;;;;;;;3.20;3.00;;;;;23.80;99796.00;;;;2043258;29;20205;-66
2021/08/01 01:59:42;;;;;;;3.30;2.70;;;;;23.80;99797.00;;;;2050689;28;20286;-67
2021/08/01 02:00:44;;;;;;;3.10;2.80;;;;;23.80;99797.00;;;;2043676;28;20468;-65
2021/08/01 02:01:44;;;;;;;3.17;2.95;;;;;23.80;99799.00;;;;2036609;29;20217;-65
2021/08/01 02:02:45;;;;;;;3.37;3.10;;;;;23.80;99799.00;;;;2044160;28;20216;-65
2021/08/01 02:03:45;;;;;;;3.00;2.80;;;;;23.80;99802.00;;;;2059835;28;20242;-66
2021/08/01 02:04:46;;;;;;;3.00;2.80;;;;;23.80;99795.00;;;;2059668;28;20219;-65
2021/08/01 02:05:46;;;;;;;2.93;2.73;;;;;23.80;99797.00;;;;2060382;28;20233;-65
2021/08/01 02:06:46;;;;;;;2.80;2.60;;;;;23.80;99800.00;;;;2063337;28;20726;-66
2021/08/01 02:07:47;;;;;;;3.30;2.73;;;;;23.80;99803.00;;;;2057371;28;20239;-65
2021/08/01 02:09:08;;;;;;;2.67;2.47;;;;;23.80;99812.00;;;;2043194;29;20224;-66
2021/08/01 02:10:16;;;;;;;2.80;2.60;;;;;23.80;99803.00;;;;2053935;28;20303;-66
2021/08/01 02:11:16;;;;;;;4.60;3.72;;;;;23.80;99805.00;;;;2046762;28;20653;-66
2021/08/01 02:12:36;;;;;;;3.30;3.00;;;;;23.80;99809.00;;;;2051863;28;20351;-65
2021/08/01 02:13:48;;;;;;;3.22;2.92;;;;;23.80;99805.00;;;;2054124;28;20223;-65
2021/08/01 02:15:08;;;;;;;3.17;2.83;;;;;23.80;99805.00;;;;2043417;29;20676;-65
2021/08/01 02:16:09;;;;;;;3.17;2.97;;;;;23.80;99810.00;;;;2049625;28;20267;-67
2021/08/01 02:17:11;;;;;;;4.27;3.50;;;;;23.80;99808.00;;;;2060123;28;20310;-66
2021/08/01 02:18:17;;;;;;;3.10;2.80;;;;;23.80;99812.00;;;;2051132;28;20246;-65
2021/08/01 02:19:19;;;;;;;3.40;3.20;;;;;23.80;99811.00;;;;2044149;29;20212;-65
2021/08/01 02:20:21;;;;;;;3.80;3.50;;;;;23.70;99812.00;;;;2043034;29;20751;-65
2021/08/01 02:21:22;;;;;;;3.28;3.08;;;;;23.80;99807.00;;;;2043528;29;20331;-65
2021/08/01 02:22:22;;;;;;;3.20;2.80;;;;;23.70;99806.00;;;;2053152;28;20679;-66
2021/08/01 02:23:24;;;;;;;3.50;3.20;;;;;23.70;99810.00;;;;2059960;28;20354;-66
2021/08/01 02:24:25;;;;;;;4.00;3.30;;;;;23.80;99802.00;;;;2060007;28;20250;-65
2021/08/01 02:25:27;;;;;;;2.90;2.70;;;;;23.70;99808.00;;;;2051974;28;20220;-67
2021/08/01 02:26:27;;;;;;;3.30;3.10;;;;;23.70;99807.00;;;;2052133;28;20892;-65
2021/08/01 02:27:29;;;;;;;3.43;3.20;;;;;23.70;99813.00;;;;2044349;29;21218;-65
2021/08/01 02:28:30;;;;;;;3.38;2.85;;;;;23.70;99817.00;;;;2044541;28;20316;-65
2021/08/01 02:29:30;;;;;;;3.50;3.20;;;;;23.70;99812.00;;;;2059361;28;20717;-65
2021/08/01 02:30:31;;;;;;;3.37;3.17;;;;;23.70;99809.00;;;;2059759;28;20586;-65
2021/08/01 02:31:31;;;;;;;3.20;2.90;;;;;23.80;99807.00;;;;2043728;29;20652;-66
2021/08/01 02:32:32;;;;;;;3.20;2.90;;;;;23.70;99802.00;;;;2036069;29;20220;-65
2021/08/01 02:33:32;;;;;;;3.27;3.00;;;;;23.70;99794.00;;;;2052527;28;20231;-65
2021/08/01 02:34:33;;;;;;;3.23;2.93;;;;;23.80;99798.00;;;;2060277;28;20224;-65
2021/08/01 02:35:33;;;;;;;2.60;2.40;;;;;23.80;99796.00;;;;2063614;28;20246;-65
2021/08/01 02:36:33;;;;;;;3.43;3.20;;;;;23.70;99797.00;;;;2054387;28;20207;-65
2021/08/01 02:37:34;;;;;;;3.43;3.13;;;;;23.70;99797.00;;;;2044154;28;20227;-67
2021/08/01 02:38:35;;;;;;;3.40;3.10;;;;;23.70;99799.00;;;;2051480;28;20235;-65
2021/08/01 02:39:35;;;;;;;3.70;3.20;;;;;23.70;99800.00;;;;2042451;29;20460;-65
2021/08/01 02:40:36;;;;;;;3.00;2.80;;;;;23.70;99798.00;;;;2043875;29;20264;-65
2021/08/01 02:41:37;;;;;;;3.63;3.28;;;;;23.70;99800.00;;;;2052114;28;20220;-66
2021/08/01 02:42:41;;;;;;;3.42;3.13;;;;;23.70;99806.00;;;;2044184;29;20228;-65
2021/08/01 02:43:42;;;;;;;3.80;3.50;;;;;23.70;99798.00;;;;2032675;28;20213;-65
2021/08/01 02:44:42;;;;;;;3.33;3.00;;;;;23.70;99809.00;;;;2039567;29;20235;-65
2021/08/01 02:45:42;;;;;;;3.10;2.90;;;;;23.70;99807.00;;;;2040895;29;20217;-65
2021/08/01 02:46:43;;;;;;;3.50;3.20;;;;;23.70;99817.00;;;;2044059;29;20273;-65
2021/08/01 02:47:43;;;;;;;3.23;3.00;;;;;23.70;99807.00;;;;2052148;28;20707;-65
2021/08/01 02:48:43;;;;;;;3.90;3.50;;;;;23.70;99806.00;;;;2043346;29;20627;-65
2021/08/01 02:49:45;;;;;;;3.73;3.43;;;;;23.70;99817.00;;;;2043196;29;20219;-65
2021/08/01 02:50:46;;;;;;;3.58;3.28;;;;;23.70;99817.00;;;;2042960;29;20228;-65
2021/08/01 02:51:49;;;;;;;3.28;2.97;;;;;23.70;99817.00;;;;2051641;28;20282;-67
2021/08/01 02:52:59;;;;;;;3.00;2.75;;;;;23.70;99813.00;;;;2051564;28;20216;-65
2021/08/01 02:54:00;;;;;;;3.35;3.10;;;;;23.70;99823.00;;;;2045012;28;20213;-65
2021/08/01 02:55:00;;;;;;;2.73;2.53;;;;;23.70;99807.00;;;;2040971;29;20332;-65
2021/08/01 02:56:03;;;;;;;2.73;2.53;;;;;23.70;99818.00;;;;2036135;29;20217;-65
2021/08/01 02:57:04;;;;;;;4.15;2.90;;;;;23.70;99811.00;;;;2035401;29;20221;-65
2021/08/01 02:58:05;;;;;;;3.33;2.90;;;;;23.70;99807.00;;;;2043932;29;20228;-65
2021/08/01 02:59:05;;;;;;;3.20;2.90;;;;;23.70;99812.00;;;;2043451;29;20216;-67
2021/08/01 03:00:06;;;;;;;3.47;3.20;;;;;23.70;99805.00;;;;2051061;28;20219;-65
2021/08/01 03:01:06;;;;;;;3.10;2.90;;;;;23.70;99809.00;;;;2048940;28;20236;-65
2021/08/01 03:02:08;;;;;;;3.57;3.27;;;;;23.70;99820.00;;;;2050024;28;20320;-65
2021/08/01 03:03:08;;;;;;;3.50;3.20;;;;;23.70;99810.00;;;;2047621;28;20220;-65
2021/08/01 03:04:09;;;;;;;3.17;2.97;;;;;23.70;99807.00;;;;2047714;28;20240;-65
2021/08/01 03:05:09;;;;;;;3.30;3.03;;;;;23.70;99803.00;;;;2048784;28;20228;-66
2021/08/01 03:06:10;;;;;;;5.70;3.03;;;;;23.70;99807.00;;;;2055016;28;20634;-67
2021/08/01 03:07:10;;;;;;;3.60;3.40;;;;;23.70;99811.00;;;;2057081;28;20223;-65
2021/08/01 03:08:14;;;;;;;3.10;2.90;;;;;23.70;99809.00;;;;2047818;28;20292;-65
2021/08/01 03:09:14;;;;;;;3.45;3.10;;;;;23.70;99811.00;;;;2053524;28;20713;-65
2021/08/01 03:10:14;;;;;;;3.40;3.10;;;;;23.70;99811.00;;;;2059634;28;20245;-66
2021/08/01 03:11:21;;;;;;;3.40;3.10;;;;;23.70;99819.00;;;;2060105;28;20222;-65
2021/08/01 03:12:22;;;;;;;3.10;2.90;;;;;23.70;99801.00;;;;2060145;28;20214;-65
2021/08/01 03:13:22;;;;;;;3.30;3.00;;;;;23.70;99810.00;;;;2051233;28;20722;-65
2021/08/01 03:14:23;;;;;;;3.50;3.20;;;;;23.70;99812.00;;;;2043540;29;20308;-65
2021/08/01 03:15:23;;;;;;;3.03;2.83;;;;;23.70;99798.00;;;;2051873;28;20788;-65
2021/08/01 03:16:23;;;;;;;3.47;3.17;;;;;23.70;99805.00;;;;2060914;28;20702;-65
2021/08/01 03:17:24;;;;;;;2.90;2.60;;;;;23.70;99801.00;;;;2058766;28;20230;-67
2021/08/01 03:18:24;;;;;;;3.70;3.40;;;;;23.70;99810.00;;;;2059919;28;20235;-66
2021/08/01 03:19:24;;;;;;;3.10;2.90;;;;;23.70;99805.00;;;;2059992;28;20302;-64
2021/08/01 03:20:25;;;;;;;2.97;2.77;;;;;23.70;99806.00;;;;2060270;28;20219;-65
2021/08/01 03:21:26;;;;;;;3.63;3.33;;;;;23.70;99803.00;;;;2060678;28;20255;-67
2021/08/01 03:22:26;;;;;;;3.30;3.00;;;;;23.70;99805.00;;;;2049434;28;20511;-65
2021/08/01 03:23:26;;;;;;;3.20;3.00;;;;;23.70;99803.00;;;;2051456;28;20219;-65
2021/08/01 03:24:27;;;;;;;3.70;3.40;;;;;23.70;99804.00;;;;2060336;28;20219;-65
2021/08/01 03:25:27;;;;;;;3.30;3.10;;;;;23.70;99805.00;;;;2060467;28;20219;-66
2021/08/01 03:26:27;;;;;;;3.67;3.37;;;;;23.70;99802.00;;;;2060695;28;20219;-65
2021/08/01 03:27:28;;;;;;;3.57;3.27;;;;;23.70;99813.00;;;;2060456;28;20215;-65
2021/08/01 03:28:28;;;;;;;3.93;3.53;;;;;23.70;99817.00;;;;2056858;28;20262;-65
2021/08/01 03:29:28;;;;;;;3.47;3.17;;;;;23.70;99805.00;;;;2060416;28;20230;-65
2021/08/01 03:30:29;;;;;;;3.53;3.23;;;;;23.70;99817.00;;;;2059938;28;20226;-65
2021/08/01 03:31:29;;;;;;;4.40;3.37;;;;;23.70;99808.00;;;;2060579;28;20219;-66
2021/08/01 03:32:29;;;;;;;3.50;3.20;;;;;23.70;99804.00;;;;2060472;28;20223;-65
2021/08/01 03:33:30;;;;;;;3.53;3.30;;;;;23.70;99806.00;;;;2059587;28;20297;-65
2021/08/01 03:34:30;;;;;;;3.00;2.80;;;;;23.70;99810.00;;;;2059729;28;20261;-65
2021/08/01 03:35:30;;;;;;;3.10;2.90;;;;;23.70;99811.00;;;;2061975;28;20693;-67
2021/08/01 03:36:31;;;;;;;3.87;3.57;;;;;23.70;99810.00;;;;2061483;28;20238;-65
2021/08/01 03:37:31;;;;;;;3.43;3.23;;;;;23.70;99817.00;;;;2059639;28;20611;-65
2021/08/01 03:38:32;;;;;;;2.97;2.77;;;;;23.70;99822.00;;;;2059729;28;20617;-65
2021/08/01 03:39:35;;;;;;;3.63;3.07;;;;;23.70;99820.00;;;;2059573;28;20579;-67
2021/08/01 03:40:35;;;;;;;3.33;3.03;;;;;23.70;99822.00;;;;2059170;28;20227;-65
2021/08/01 03:41:35;;;;;;;3.93;3.63;;;;;23.70;99826.00;;;;2060329;28;20222;-65
2021/08/01 03:42:36;;;;;;;3.27;2.97;;;;;23.70;99825.00;;;;2060485;28;20223;-65
2021/08/01 03:43:36;;;;;;;3.50;3.20;;;;;23.70;99818.00;;;;2060463;28;20203;-66
2021/08/01 03:44:36;;;;;;;3.73;3.30;;;;;23.70;99822.00;;;;2060389;28;20211;-66
2021/08/01 03:45:37;;;;;;;3.50;3.20;;;;;23.70;99824.00;;;;2060029;28;20217;-65
2021/08/01 03:46:38;;;;;;;3.60;3.33;;;;;23.70;99827.00;;;;2059255;28;20277;-65
2021/08/01 03:47:38;;;;;;;3.00;2.80;;;;;23.70;99828.00;;;;2058728;28;20261;-65
2021/08/01 03:48:39;;;;;;;3.17;2.90;;;;;23.70;99826.00;;;;2059658;28;20238;-66
2021/08/01 03:49:42;;;;;;;3.00;2.80;;;;;23.70;99830.00;;;;2059907;28;20729;-65
2021/08/01 03:50:43;;;;;;;3.70;3.40;;;;;23.70;99829.00;;;;2059987;28;20235;-66
2021/08/01 03:51:43;;;;;;;3.60;3.30;;;;;23.70;99832.00;;;;2060179;28;20211;-65
2021/08/01 03:52:43;;;;;;;3.53;3.20;;;;;23.70;99829.00;;;;2060234;28;20223;-65
2021/08/01 03:53:44;;;;;;;3.70;3.40;;;;;23.70;99832.00;;;;2060527;28;20296;-65
2021/08/01 03:54:45;;;;;;;7.47;3.30;;;;;23.70;99829.00;;;;2060355;28;20212;-65
2021/08/01 03:55:45;;;;;;;3.60;3.30;;;;;23.70;99827.00;;;;2060329;28;20215;-65
2021/08/01 03:56:46;;;;;;;3.43;3.20;;;;;23.70;99829.00;;;;2060377;28;20342;-65
2021/08/01 03:57:46;;;;;;;3.10;2.80;;;;;23.70;99825.00;;;;2051317;28;20219;-65
2021/08/01 03:58:47;;;;;;;3.23;2.93;;;;;23.70;99826.00;;;;2050861;28;20801;-66
2021/08/01 03:59:47;;;;;;;3.00;2.80;;;;;23.60;99812.00;;;;2059666;28;20225;-65
2021/08/01 04:00:48;;;;;;;3.43;3.17;;;;;23.70;99824.00;;;;2061973;28;20219;-66
2021/08/01 04:01:48;;;;;;;3.53;3.23;;;;;23.70;99824.00;;;;2060024;28;20215;-67
2021/08/01 04:02:48;;;;;;;3.73;3.23;;;;;23.70;99824.00;;;;2049635;28;20219;-65
2021/08/01 04:03:49;;;;;;;3.50;3.20;;;;;23.60;99825.00;;;;2058923;28;20241;-66
2021/08/01 04:04:49;;;;;;;3.20;3.00;;;;;23.70;99824.00;;;;2058945;28;20219;-65
2021/08/01 04:05:50;;;;;;;3.93;3.63;;;;;23.70;99818.00;;;;2063336;28;20222;-66
2021/08/01 04:06:50;;;;;;;3.30;3.00;;;;;23.70;99819.00;;;;2056672;28;20710;-67
2021/08/01 04:07:51;;;;;;;3.40;3.20;;;;;23.70;99824.00;;;;2055174;28;20486;-66
2021/08/01 04:08:51;;;;;;;3.27;2.97;;;;;23.70;99824.00;;;;2058034;28;20265;-65
2021/08/01 04:09:51;;;;;;;3.43;3.23;;;;;23.70;99824.00;;;;2050365;28;20310;-67
2021/08/01 04:10:52;;;;;;;3.50;3.20;;;;;23.70;99824.00;;;;2051110;28;20220;-66
2021/08/01 04:11:52;;;;;;;3.33;3.10;;;;;23.70;99825.00;;;;2059749;28;20266;-66
2021/08/01 04:12:52;;;;;;;3.67;3.37;;;;;23.70;99824.00;;;;2060361;28;20215;-65
2021/08/01 04:13:53;;;;;;;3.37;3.07;;;;;23.70;99826.00;;;;2059652;28;20545;-65
2021/08/01 04:14:53;;;;;;;3.83;3.53;;;;;23.70;99826.00;;;;2049734;28;20857;-64
2021/08/01 04:15:53;;;;;;;3.70;3.40;;;;;23.70;99827.00;;;;2059783;28;20215;-65
2021/08/01 04:16:53;;;;;;;3.23;2.97;;;;;23.70;99823.00;;;;2059869;28;20212;-65
2021/08/01 04:17:54;;;;;;;3.10;2.90;;;;;23.70;99821.00;;;;2060256;28;20219;-65
2021/08/01 04:18:54;;;;;;;3.73;3.40;;;;;23.70;99822.00;;;;2060357;28;20238;-65
2021/08/01 04:19:54;;;;;;;3.80;3.27;;;;;23.70;99823.00;;;;2059336;28;20211;-65
2021/08/01 04:20:55;;;;;;;3.30;3.00;;;;;23.70;99824.00;;;;2063554;28;20210;-65
2021/08/01 04:21:55;;;;;;;3.47;3.17;;;;;23.70;99823.00;;;;2058159;28;20215;-65
2021/08/01 04:22:56;;;;;;;5.23;3.30;;;;;23.70;99811.00;;;;2059475;28;20312;-66
2021/08/01 04:23:56;;;;;;;3.40;3.10;;;;;23.70;99822.00;;;;2059660;28;20211;-65
2021/08/01 04:24:56;;;;;;;3.30;3.00;;;;;23.70;99817.00;;;;2058026;28;20571;-65
2021/08/01 04:25:56;;;;;;;2.93;2.73;;;;;23.70;99818.00;;;;2057393;28;20714;-66
2021/08/01 04:26:57;;;;;;;3.50;3.20;;;;;23.70;99826.00;;;;2059840;28;20225;-65
2021/08/01 04:27:57;;;;;;;3.37;3.07;;;;;23.70;99817.00;;;;2059411;28;20227;-66
2021/08/01 04:28:58;;;;;;;3.17;2.97;;;;;23.70;99827.00;;;;2058849;28;20222;-66
2021/08/01 04:29:58;;;;;;;3.53;2.97;;;;;23.70;99824.00;;;;2060971;28;20633;-65
2021/08/01 04:30:58;;;;;;;3.40;2.53;;;;;23.70;99821.00;;;;2050988;28;20223;-65
2021/08/01 04:31:59;;;;;;;3.70;3.23;;;;;23.70;99813.00;;;;2043285;29;20268;-65
2021/08/01 04:32:59;;;;;;;3.30;3.00;;;;;23.60;99817.00;;;;2050495;28;20220;-65
2021/08/01 04:34:00;;;;;;;3.20;2.97;;;;;23.70;99819.00;;;;2057229;28;20298;-65
2021/08/01 04:35:00;;;;;;;3.70;3.40;;;;;23.70;99813.00;;;;2062295;28;20585;-66
2021/08/01 04:36:00;;;;;;;3.23;2.93;;;;;23.60;99812.00;;;;2060791;28;20212;-65
2021/08/01 04:37:01;;;;;;;3.30;3.00;;;;;23.60;99802.00;;;;2059973;28;20243;-65
2021/08/01 04:38:01;;;;;;;3.00;2.80;;;;;23.60;99817.00;;;;2063426;28;20222;-65
2021/08/01 04:39:02;;;;;;;3.60;2.90;;;;;23.60;99812.00;;;;2060430;28;20220;-65
2021/08/01 04:40:03;;;;;;;3.70;3.40;;;;;23.60;99809.00;;;;2060180;28;20214;-65
2021/08/01 04:41:03;;;;;;;3.33;3.10;;;;;23.60;99823.00;;;;2059648;28;20266;-65
2021/08/01 04:42:03;;;;;;;3.40;3.10;;;;;23.60;99807.00;;;;2060502;28;20459;-65
2021/08/01 04:43:04;;;;;;;2.70;2.50;;;;;23.70;99809.00;;;;2060290;28;20215;-65
2021/08/01 04:44:04;;;;;;;3.40;3.10;;;;;23.70;99822.00;;;;2060140;28;20222;-65
2021/08/01 04:45:06;;;;;;;3.47;3.13;;;;;23.60;99819.00;;;;2059411;28;20345;-65
2021/08/01 04:46:07;;;;;;;3.55;3.25;;;;;23.60;99817.00;;;;2060707;28;20620;-65
2021/08/01 04:47:07;;;;;;;3.93;3.63;;;;;23.60;99820.00;;;;2060158;28;20223;-65
2021/08/01 04:48:07;;;;;;;3.30;3.10;;;;;23.60;99810.00;;;;2060149;28;20357;-65
2021/08/01 04:49:08;;;;;;;3.43;3.13;;;;;23.60;99811.00;;;;2056538;28;20237;-65
2021/08/01 04:50:08;;;;;;;3.47;3.20;;;;;23.70;99820.00;;;;2060415;28;20218;-64
2021/08/01 04:51:09;;;;;;;3.50;3.20;;;;;23.60;99813.00;;;;2059819;28;20227;-66
2021/08/01 04:52:16;;;;;;;3.70;3.40;;;;;23.60;99818.00;;;;2060247;28;20216;-65
2021/08/01 04:53:16;;;;;;;3.25;3.00;;;;;23.60;99823.00;;;;2059524;28;20215;-65
2021/08/01 04:54:17;;;;;;;3.43;3.13;;;;;23.70;99817.00;;;;2059691;28;20809;-65
2021/08/01 04:55:20;;;;;;;3.63;3.33;;;;;23.70;99810.00;;;;2058250;28;20222;-65
2021/08/01 04:56:21;;;;;;;3.60;3.30;;;;;23.70;99821.00;;;;2058848;28;20227;-65
2021/08/01 04:57:21;;;;;;;3.03;2.83;;;;;23.60;99821.00;;;;2058994;28;20211;-65
2021/08/01 04:58:21;;;;;;;4.57;3.23;;;;;23.60;99809.00;;;;2059006;28;20242;-65
2021/08/01 04:59:22;;;;;;;3.40;3.10;;;;;23.60;99809.00;;;;2057967;28;20610;-65
2021/08/01 05:00:22;;;;;;;3.43;3.13;;;;;23.60;99807.00;;;;2058291;28;20591;-65
2021/08/01 05:01:22;;;;;;;3.30;2.97;;;;;23.60;99811.00;;;;2063192;28;20753;-65
2021/08/01 05:02:23;;;;;;;3.30;3.00;;;;;23.60;99807.00;;;;2060712;28;20226;-65
2021/08/01 05:03:23;;;;;;;3.53;3.23;;;;;23.60;99807.00;;;;2060114;28;20222;-65
2021/08/01 05:04:23;;;;;;;2.97;2.77;;;;;23.60;99812.00;;;;2059867;28;20214;-65
2021/08/01 05:05:24;;;;;;;6.10;3.53;;;;;23.70;99812.00;;;;2060374;28;20246;-65
2021/08/01 05:06:24;;;;;;;3.20;3.00;;;;;23.70;99805.00;;;;2061943;28;20221;-65
2021/08/01 05:07:24;;;;;;;3.73;2.83;;;;;23.60;99802.00;;;;2061538;28;20269;-65
2021/08/01 05:08:25;;;;;;;3.30;3.00;;;;;23.60;99799.00;;;;2059813;28;20218;-65
2021/08/01 05:09:25;;;;;;;3.30;3.00;;;;;23.60;99803.00;;;;2059737;28;20310;-65
2021/08/01 05:10:25;;;;;;;5.23;3.10;;;;;23.60;99801.00;;;;2050197;28;20220;-66
2021/08/01 05:11:26;;;;;;;2.90;2.70;;;;;23.60;99803.00;;;;2050666;28;20706;-65